sensor_id;sensor_type;location;lat;lon;timestamp;P1;durP1;ratioP1;P2;durP2;ratioP2
12958;SDS011;6544;51.666;6.634;2023-07-08T00:00:18;3.40;;;2.40;;
12958;SDS011;6544;51.666;6.634;2023-07-08T00:02:46;4.70;;;2.70;;
12958;SDS011;6544;51.666;6.634;2023-07-08T00:05:15;4.82;;;2.45;;
12958;SDS011;6544;51.666;6.634;2023-07-08T00:07:43;6.85;;;2.90;;
12958;SDS011;6544;51.666;6.634;2023-07-08T00:10:12;4.72;;;2.90;;
12958;SDS011;6544;51.666;6.634;2023-07-08T00:12:40;3.85;;;2.47;;
12958;SDS011;6544;51.666;6.634;2023-07-08T00:15:07;3.80;;;2.55;;
12958;SDS011;6544;51.666;6.634;2023-07-08T00:17:35;5.65;;;2.80;;
12958;SDS011;6544;51.666;6.634;2023-07-08T00:20:07;4.78;;;2.85;;
12958;SDS011;6544;51.666;6.634;2023-07-08T00:22:41;4.00;;;2.72;;
12958;SDS011;6544;51.666;6.634;2023-07-08T00:25:08;3.97;;;2.63;;
12958;SDS011;6544;51.666;6.634;2023-07-08T00:27:35;5.00;;;2.80;;
12958;SDS011;6544;51.666;6.634;2023-07-08T00:30:07;4.50;;;3.13;;
12958;SDS011;6544;51.666;6.634;2023-07-08T00:32:43;4.50;;;2.75;;
12958;SDS011;6544;51.666;6.634;2023-07-08T00:35:10;4.68;;;2.78;;
12958;SDS011;6544;51.666;6.634;2023-07-08T00:37:37;5.93;;;2.75;;
12958;SDS011;6544;51.666;6.634;2023-07-08T00:40:13;4.60;;;2.70;;
12958;SDS011;6544;51.666;6.634;2023-07-08T00:42:42;3.38;;;2.50;;
12958;SDS011;6544;51.666;6.634;2023-07-08T00:45:24;3.72;;;2.90;;
12958;SDS011;6544;51.666;6.634;2023-07-08T00:48:05;3.88;;;2.72;;
12958;SDS011;6544;51.666;6.634;2023-07-08T00:50:35;4.63;;;2.70;;
12958;SDS011;6544;51.666;6.634;2023-07-08T00:55:54;4.82;;;2.80;;
12958;SDS011;6544;51.666;6.634;2023-07-08T00:58:24;4.90;;;3.00;;
12958;SDS011;6544;51.666;6.634;2023-07-08T01:00:53;4.53;;;2.90;;
12958;SDS011;6544;51.666;6.634;2023-07-08T01:03:22;4.30;;;2.47;;
12958;SDS011;6544;51.666;6.634;2023-07-08T01:05:53;7.40;;;2.75;;
12958;SDS011;6544;51.666;6.634;2023-07-08T01:08:24;5.80;;;2.90;;
12958;SDS011;6544;51.666;6.634;2023-07-08T01:10:56;3.97;;;2.83;;
12958;SDS011;6544;51.666;6.634;2023-07-08T01:13:28;3.63;;;2.70;;
12958;SDS011;6544;51.666;6.634;2023-07-08T01:15:59;4.05;;;2.50;;
12958;SDS011;6544;51.666;6.634;2023-07-08T01:18:26;5.10;;;2.70;;
12958;SDS011;6544;51.666;6.634;2023-07-08T01:20:54;6.43;;;2.65;;
12958;SDS011;6544;51.666;6.634;2023-07-08T01:23:22;4.72;;;2.42;;
12958;SDS011;6544;51.666;6.634;2023-07-08T01:25:50;3.58;;;2.70;;
12958;SDS011;6544;51.666;6.634;2023-07-08T01:28:18;4.45;;;2.60;;
12958;SDS011;6544;51.666;6.634;2023-07-08T01:30:45;5.65;;;2.58;;
12958;SDS011;6544;51.666;6.634;2023-07-08T01:33:16;3.75;;;2.50;;
12958;SDS011;6544;51.666;6.634;2023-07-08T01:35:45;4.97;;;2.92;;
12958;SDS011;6544;51.666;6.634;2023-07-08T01:38:14;4.35;;;2.70;;
12958;SDS011;6544;51.666;6.634;2023-07-08T01:40:50;3.13;;;2.55;;
12958;SDS011;6544;51.666;6.634;2023-07-08T01:43:18;5.05;;;2.70;;
12958;SDS011;6544;51.666;6.634;2023-07-08T01:45:45;6.07;;;3.03;;
12958;SDS011;6544;51.666;6.634;2023-07-08T01:48:15;3.00;;;2.70;;
12958;SDS011;6544;51.666;6.634;2023-07-08T01:50:45;4.95;;;2.38;;
12958;SDS011;6544;51.666;6.634;2023-07-08T01:53:14;8.02;;;2.88;;
12958;SDS011;6544;51.666;6.634;2023-07-08T01:55:42;4.25;;;2.83;;
12958;SDS011;6544;51.666;6.634;2023-07-08T01:58:11;4.82;;;3.00;;
12958;SDS011;6544;51.666;6.634;2023-07-08T02:00:38;3.53;;;2.58;;
12958;SDS011;6544;51.666;6.634;2023-07-08T02:03:05;5.10;;;2.72;;
12958;SDS011;6544;51.666;6.634;2023-07-08T02:05:31;3.65;;;2.60;;
12958;SDS011;6544;51.666;6.634;2023-07-08T02:07:58;5.35;;;2.60;;
12958;SDS011;6544;51.666;6.634;2023-07-08T02:10:25;4.43;;;2.75;;
12958;SDS011;6544;51.666;6.634;2023-07-08T02:12:52;3.20;;;2.45;;
12958;SDS011;6544;51.666;6.634;2023-07-08T02:15:21;5.50;;;2.72;;
12958;SDS011;6544;51.666;6.634;2023-07-08T02:17:47;4.57;;;2.58;;
12958;SDS011;6544;51.666;6.634;2023-07-08T02:20:15;4.43;;;2.83;;
12958;SDS011;6544;51.666;6.634;2023-07-08T02:22:42;2.83;;;2.40;;
12958;SDS011;6544;51.666;6.634;2023-07-08T02:25:09;3.35;;;2.50;;
12958;SDS011;6544;51.666;6.634;2023-07-08T02:27:36;4.35;;;2.40;;
12958;SDS011;6544;51.666;6.634;2023-07-08T02:30:06;3.88;;;2.50;;
12958;SDS011;6544;51.666;6.634;2023-07-08T02:32:35;2.63;;;2.40;;
12958;SDS011;6544;51.666;6.634;2023-07-08T02:35:04;4.25;;;2.60;;
12958;SDS011;6544;51.666;6.634;2023-07-08T02:37:31;5.47;;;2.92;;
12958;SDS011;6544;51.666;6.634;2023-07-08T02:39:58;4.38;;;2.80;;
12958;SDS011;6544;51.666;6.634;2023-07-08T02:42:25;5.65;;;2.53;;
12958;SDS011;6544;51.666;6.634;2023-07-08T02:44:52;3.35;;;2.60;;
12958;SDS011;6544;51.666;6.634;2023-07-08T02:47:19;5.20;;;2.60;;
12958;SDS011;6544;51.666;6.634;2023-07-08T02:49:48;3.88;;;2.58;;
12958;SDS011;6544;51.666;6.634;2023-07-08T02:52:15;3.05;;;2.47;;
12958;SDS011;6544;51.666;6.634;2023-07-08T02:54:42;5.32;;;2.90;;
12958;SDS011;6544;51.666;6.634;2023-07-08T02:57:09;3.00;;;2.47;;
12958;SDS011;6544;51.666;6.634;2023-07-08T02:59:36;4.50;;;2.63;;
12958;SDS011;6544;51.666;6.634;2023-07-08T03:02:03;3.50;;;2.47;;
12958;SDS011;6544;51.666;6.634;2023-07-08T03:04:30;3.45;;;2.78;;
12958;SDS011;6544;51.666;6.634;2023-07-08T03:06:58;3.97;;;3.00;;
12958;SDS011;6544;51.666;6.634;2023-07-08T03:09:26;4.60;;;2.65;;
12958;SDS011;6544;51.666;6.634;2023-07-08T03:11:54;4.57;;;2.70;;
12958;SDS011;6544;51.666;6.634;2023-07-08T03:14:20;7.03;;;2.60;;
12958;SDS011;6544;51.666;6.634;2023-07-08T03:16:47;3.33;;;2.47;;
12958;SDS011;6544;51.666;6.634;2023-07-08T03:19:14;8.07;;;2.67;;
12958;SDS011;6544;51.666;6.634;2023-07-08T03:21:42;7.95;;;3.03;;
12958;SDS011;6544;51.666;6.634;2023-07-08T03:24:10;4.78;;;2.70;;
12958;SDS011;6544;51.666;6.634;2023-07-08T03:26:38;4.35;;;2.50;;
12958;SDS011;6544;51.666;6.634;2023-07-08T03:29:05;3.65;;;2.65;;
12958;SDS011;6544;51.666;6.634;2023-07-08T03:31:34;3.38;;;2.65;;
12958;SDS011;6544;51.666;6.634;2023-07-08T03:34:01;5.00;;;2.70;;
12958;SDS011;6544;51.666;6.634;2023-07-08T03:36:29;3.92;;;2.47;;
12958;SDS011;6544;51.666;6.634;2023-07-08T03:38:56;3.65;;;2.60;;
12958;SDS011;6544;51.666;6.634;2023-07-08T03:41:26;6.20;;;2.90;;
12958;SDS011;6544;51.666;6.634;2023-07-08T03:43:53;3.15;;;2.70;;
12958;SDS011;6544;51.666;6.634;2023-07-08T03:46:21;3.22;;;2.70;;
12958;SDS011;6544;51.666;6.634;2023-07-08T03:48:49;3.97;;;2.70;;
12958;SDS011;6544;51.666;6.634;2023-07-08T03:51:17;3.63;;;2.70;;
12958;SDS011;6544;51.666;6.634;2023-07-08T03:53:48;3.00;;;2.70;;
12958;SDS011;6544;51.666;6.634;2023-07-08T03:56:16;3.65;;;2.50;;
12958;SDS011;6544;51.666;6.634;2023-07-08T03:58:45;4.15;;;2.78;;
12958;SDS011;6544;51.666;6.634;2023-07-08T04:01:13;6.07;;;3.08;;
12958;SDS011;6544;51.666;6.634;2023-07-08T04:03:42;5.25;;;2.55;;
12958;SDS011;6544;51.666;6.634;2023-07-08T04:06:10;3.60;;;2.50;;
12958;SDS011;6544;51.666;6.634;2023-07-08T04:08:36;4.18;;;2.33;;
12958;SDS011;6544;51.666;6.634;2023-07-08T04:11:03;2.90;;;2.60;;
12958;SDS011;6544;51.666;6.634;2023-07-08T04:13:30;7.50;;;2.80;;
12958;SDS011;6544;51.666;6.634;2023-07-08T04:16:00;4.55;;;2.80;;
12958;SDS011;6544;51.666;6.634;2023-07-08T04:18:29;3.22;;;2.60;;
12958;SDS011;6544;51.666;6.634;2023-07-08T04:20:56;6.82;;;2.55;;
12958;SDS011;6544;51.666;6.634;2023-07-08T04:23:24;6.43;;;2.90;;
12958;SDS011;6544;51.666;6.634;2023-07-08T04:25:52;4.28;;;2.70;;
12958;SDS011;6544;51.666;6.634;2023-07-08T04:28:21;5.07;;;2.83;;
12958;SDS011;6544;51.666;6.634;2023-07-08T04:30:48;5.05;;;2.60;;
12958;SDS011;6544;51.666;6.634;2023-07-08T04:33:17;3.92;;;2.40;;
12958;SDS011;6544;51.666;6.634;2023-07-08T04:35:44;4.07;;;2.75;;
12958;SDS011;6544;51.666;6.634;2023-07-08T04:38:14;4.72;;;3.40;;
12958;SDS011;6544;51.666;6.634;2023-07-08T04:40:44;7.20;;;2.95;;
12958;SDS011;6544;51.666;6.634;2023-07-08T04:43:11;7.45;;;2.70;;
12958;SDS011;6544;51.666;6.634;2023-07-08T04:45:38;5.57;;;3.03;;
12958;SDS011;6544;51.666;6.634;2023-07-08T04:48:07;6.07;;;2.50;;
12958;SDS011;6544;51.666;6.634;2023-07-08T04:50:39;3.22;;;2.60;;
12958;SDS011;6544;51.666;6.634;2023-07-08T04:53:07;4.95;;;2.58;;
12958;SDS011;6544;51.666;6.634;2023-07-08T04:55:34;3.75;;;2.70;;
12958;SDS011;6544;51.666;6.634;2023-07-08T04:58:02;3.95;;;2.80;;
12958;SDS011;6544;51.666;6.634;2023-07-08T05:00:28;4.38;;;3.33;;
12958;SDS011;6544;51.666;6.634;2023-07-08T05:02:55;3.65;;;2.50;;
12958;SDS011;6544;51.666;6.634;2023-07-08T05:05:22;8.02;;;2.95;;
12958;SDS011;6544;51.666;6.634;2023-07-08T05:07:51;5.55;;;2.60;;
12958;SDS011;6544;51.666;6.634;2023-07-08T05:10:18;5.10;;;2.92;;
12958;SDS011;6544;51.666;6.634;2023-07-08T05:12:46;13.73;;;2.90;;
12958;SDS011;6544;51.666;6.634;2023-07-08T05:15:14;6.13;;;2.92;;
12958;SDS011;6544;51.666;6.634;2023-07-08T05:17:41;4.68;;;2.70;;
12958;SDS011;6544;51.666;6.634;2023-07-08T05:20:10;6.65;;;2.78;;
12958;SDS011;6544;51.666;6.634;2023-07-08T05:22:38;9.57;;;2.97;;
12958;SDS011;6544;51.666;6.634;2023-07-08T05:25:07;5.50;;;3.13;;
12958;SDS011;6544;51.666;6.634;2023-07-08T05:27:35;6.03;;;3.08;;
12958;SDS011;6544;51.666;6.634;2023-07-08T05:30:02;4.82;;;2.92;;
12958;SDS011;6544;51.666;6.634;2023-07-08T05:32:30;4.35;;;2.40;;
12958;SDS011;6544;51.666;6.634;2023-07-08T05:34:57;4.05;;;2.80;;
12958;SDS011;6544;51.666;6.634;2023-07-08T05:37:24;4.10;;;2.72;;
12958;SDS011;6544;51.666;6.634;2023-07-08T05:39:53;3.78;;;2.70;;
12958;SDS011;6544;51.666;6.634;2023-07-08T05:42:21;4.22;;;2.95;;
12958;SDS011;6544;51.666;6.634;2023-07-08T05:44:49;3.22;;;2.92;;
12958;SDS011;6544;51.666;6.634;2023-07-08T05:47:17;4.20;;;2.60;;
12958;SDS011;6544;51.666;6.634;2023-07-08T05:49:44;5.43;;;2.55;;
12958;SDS011;6544;51.666;6.634;2023-07-08T05:52:10;6.43;;;2.70;;
12958;SDS011;6544;51.666;6.634;2023-07-08T05:54:37;4.28;;;2.90;;
12958;SDS011;6544;51.666;6.634;2023-07-08T05:57:06;6.60;;;2.88;;
12958;SDS011;6544;51.666;6.634;2023-07-08T05:59:36;4.07;;;2.88;;
12958;SDS011;6544;51.666;6.634;2023-07-08T06:02:04;5.53;;;3.03;;
12958;SDS011;6544;51.666;6.634;2023-07-08T06:04:32;4.28;;;2.70;;
12958;SDS011;6544;51.666;6.634;2023-07-08T06:06:59;7.10;;;3.20;;
12958;SDS011;6544;51.666;6.634;2023-07-08T06:09:26;6.72;;;2.90;;
12958;SDS011;6544;51.666;6.634;2023-07-08T06:11:53;4.97;;;2.90;;
12958;SDS011;6544;51.666;6.634;2023-07-08T06:14:20;3.72;;;2.90;;
12958;SDS011;6544;51.666;6.634;2023-07-08T06:16:48;3.88;;;2.80;;
12958;SDS011;6544;51.666;6.634;2023-07-08T06:19:15;5.75;;;3.05;;
12958;SDS011;6544;51.666;6.634;2023-07-08T06:21:42;7.63;;;2.90;;
12958;SDS011;6544;51.666;6.634;2023-07-08T06:24:09;4.13;;;2.53;;
12958;SDS011;6544;51.666;6.634;2023-07-08T06:26:36;4.97;;;3.00;;
12958;SDS011;6544;51.666;6.634;2023-07-08T06:29:03;5.63;;;2.95;;
12958;SDS011;6544;51.666;6.634;2023-07-08T06:31:30;4.93;;;3.00;;
12958;SDS011;6544;51.666;6.634;2023-07-08T06:33:59;3.85;;;2.90;;
12958;SDS011;6544;51.666;6.634;2023-07-08T06:36:26;6.32;;;3.10;;
12958;SDS011;6544;51.666;6.634;2023-07-08T06:38:53;4.25;;;2.88;;
12958;SDS011;6544;51.666;6.634;2023-07-08T06:41:20;5.05;;;2.83;;
12958;SDS011;6544;51.666;6.634;2023-07-08T06:43:47;7.38;;;3.20;;
12958;SDS011;6544;51.666;6.634;2023-07-08T06:46:14;4.03;;;3.00;;
12958;SDS011;6544;51.666;6.634;2023-07-08T06:48:41;9.20;;;3.40;;
12958;SDS011;6544;51.666;6.634;2023-07-08T06:51:10;4.75;;;3.20;;
12958;SDS011;6544;51.666;6.634;2023-07-08T06:53:36;5.82;;;2.95;;
12958;SDS011;6544;51.666;6.634;2023-07-08T06:56:03;5.90;;;3.30;;
12958;SDS011;6544;51.666;6.634;2023-07-08T06:58:30;3.58;;;2.72;;
12958;SDS011;6544;51.666;6.634;2023-07-08T07:00:57;3.90;;;3.00;;
12958;SDS011;6544;51.666;6.634;2023-07-08T07:03:24;6.03;;;3.08;;
12958;SDS011;6544;51.666;6.634;2023-07-08T07:05:51;5.85;;;2.78;;
12958;SDS011;6544;51.666;6.634;2023-07-08T07:08:19;6.22;;;2.78;;
12958;SDS011;6544;51.666;6.634;2023-07-08T07:10:46;7.00;;;3.13;;
12958;SDS011;6544;51.666;6.634;2023-07-08T07:13:13;5.35;;;3.35;;
12958;SDS011;6544;51.666;6.634;2023-07-08T07:15:40;9.80;;;3.50;;
12958;SDS011;6544;51.666;6.634;2023-07-08T07:18:07;5.63;;;3.00;;
12958;SDS011;6544;51.666;6.634;2023-07-08T07:20:35;8.27;;;3.35;;
12958;SDS011;6544;51.666;6.634;2023-07-08T07:23:03;5.55;;;3.20;;
12958;SDS011;6544;51.666;6.634;2023-07-08T07:25:31;6.65;;;3.35;;
12958;SDS011;6544;51.666;6.634;2023-07-08T07:27:58;6.10;;;3.38;;
12958;SDS011;6544;51.666;6.634;2023-07-08T07:30:26;4.57;;;3.15;;
12958;SDS011;6544;51.666;6.634;2023-07-08T07:32:52;5.97;;;3.53;;
12958;SDS011;6544;51.666;6.634;2023-07-08T07:35:19;4.78;;;3.30;;
12958;SDS011;6544;51.666;6.634;2023-07-08T07:37:48;5.68;;;3.10;;
12958;SDS011;6544;51.666;6.634;2023-07-08T07:40:15;4.57;;;3.05;;
12958;SDS011;6544;51.666;6.634;2023-07-08T07:42:43;4.90;;;3.20;;
12958;SDS011;6544;51.666;6.634;2023-07-08T07:45:12;5.32;;;3.40;;
12958;SDS011;6544;51.666;6.634;2023-07-08T07:47:39;5.85;;;3.00;;
12958;SDS011;6544;51.666;6.634;2023-07-08T07:50:07;5.40;;;3.28;;
12958;SDS011;6544;51.666;6.634;2023-07-08T07:52:34;5.40;;;3.67;;
12958;SDS011;6544;51.666;6.634;2023-07-08T07:55:02;9.35;;;3.50;;
12958;SDS011;6544;51.666;6.634;2023-07-08T07:57:29;6.25;;;3.30;;
12958;SDS011;6544;51.666;6.634;2023-07-08T07:59:57;9.55;;;3.60;;
12958;SDS011;6544;51.666;6.634;2023-07-08T08:02:24;4.35;;;3.42;;
12958;SDS011;6544;51.666;6.634;2023-07-08T08:04:51;4.60;;;3.20;;
12958;SDS011;6544;51.666;6.634;2023-07-08T08:07:18;6.90;;;3.53;;
12958;SDS011;6544;51.666;6.634;2023-07-08T08:09:45;5.38;;;3.55;;
12958;SDS011;6544;51.666;6.634;2023-07-08T08:12:12;10.00;;;3.50;;
12958;SDS011;6544;51.666;6.634;2023-07-08T08:14:39;4.93;;;3.40;;
12958;SDS011;6544;51.666;6.634;2023-07-08T08:17:07;10.57;;;3.55;;
12958;SDS011;6544;51.666;6.634;2023-07-08T08:19:34;6.85;;;3.60;;
12958;SDS011;6544;51.666;6.634;2023-07-08T08:22:01;6.63;;;3.88;;
12958;SDS011;6544;51.666;6.634;2023-07-08T08:24:28;6.32;;;3.88;;
12958;SDS011;6544;51.666;6.634;2023-07-08T08:26:55;8.05;;;4.13;;
12958;SDS011;6544;51.666;6.634;2023-07-08T08:29:22;5.07;;;3.97;;
12958;SDS011;6544;51.666;6.634;2023-07-08T08:31:49;6.38;;;3.90;;
12958;SDS011;6544;51.666;6.634;2023-07-08T08:34:17;5.20;;;4.07;;
12958;SDS011;6544;51.666;6.634;2023-07-08T08:36:44;5.85;;;4.60;;
12958;SDS011;6544;51.666;6.634;2023-07-08T08:39:11;6.05;;;4.30;;
12958;SDS011;6544;51.666;6.634;2023-07-08T08:41:40;9.73;;;4.60;;
12958;SDS011;6544;51.666;6.634;2023-07-08T08:44:10;8.27;;;4.15;;
12958;SDS011;6544;51.666;6.634;2023-07-08T08:46:41;6.95;;;4.35;;
12958;SDS011;6544;51.666;6.634;2023-07-08T08:49:16;6.50;;;4.53;;
12958;SDS011;6544;51.666;6.634;2023-07-08T08:51:50;8.60;;;4.30;;
12958;SDS011;6544;51.666;6.634;2023-07-08T08:54:18;6.97;;;4.68;;
12958;SDS011;6544;51.666;6.634;2023-07-08T08:56:55;6.45;;;4.60;;
12958;SDS011;6544;51.666;6.634;2023-07-08T08:59:31;7.32;;;4.65;;
12958;SDS011;6544;51.666;6.634;2023-07-08T09:02:17;8.95;;;4.45;;
12958;SDS011;6544;51.666;6.634;2023-07-08T09:04:53;8.40;;;4.65;;
12958;SDS011;6544;51.666;6.634;2023-07-08T09:07:21;7.72;;;5.22;;
12958;SDS011;6544;51.666;6.634;2023-07-08T09:09:50;7.32;;;4.90;;
12958;SDS011;6544;51.666;6.634;2023-07-08T09:12:26;8.18;;;4.88;;
12958;SDS011;6544;51.666;6.634;2023-07-08T09:14:55;7.80;;;4.93;;
12958;SDS011;6544;51.666;6.634;2023-07-08T09:17:24;6.93;;;4.60;;
12958;SDS011;6544;51.666;6.634;2023-07-08T09:19:59;6.70;;;4.47;;
12958;SDS011;6544;51.666;6.634;2023-07-08T09:22:40;10.10;;;4.72;;
12958;SDS011;6544;51.666;6.634;2023-07-08T09:25:15;7.82;;;4.70;;
12958;SDS011;6544;51.666;6.634;2023-07-08T09:27:50;7.00;;;4.78;;
12958;SDS011;6544;51.666;6.634;2023-07-08T09:30:18;7.65;;;5.10;;
12958;SDS011;6544;51.666;6.634;2023-07-08T09:32:46;10.15;;;5.25;;
12958;SDS011;6544;51.666;6.634;2023-07-08T09:35:18;8.13;;;5.03;;
12958;SDS011;6544;51.666;6.634;2023-07-08T09:37:47;8.00;;;4.63;;
12958;SDS011;6544;51.666;6.634;2023-07-08T09:40:16;8.50;;;5.00;;
12958;SDS011;6544;51.666;6.634;2023-07-08T09:42:46;6.68;;;5.00;;
12958;SDS011;6544;51.666;6.634;2023-07-08T09:45:17;9.43;;;5.05;;
12958;SDS011;6544;51.666;6.634;2023-07-08T09:47:45;10.40;;;5.00;;
12958;SDS011;6544;51.666;6.634;2023-07-08T09:50:18;7.15;;;4.60;;
12958;SDS011;6544;51.666;6.634;2023-07-08T09:52:47;10.90;;;5.13;;
12958;SDS011;6544;51.666;6.634;2023-07-08T09:55:17;8.45;;;5.00;;
12958;SDS011;6544;51.666;6.634;2023-07-08T09:57:45;7.70;;;5.18;;
12958;SDS011;6544;51.666;6.634;2023-07-08T10:00:14;6.40;;;4.75;;
12958;SDS011;6544;51.666;6.634;2023-07-08T10:02:43;7.78;;;5.03;;
12958;SDS011;6544;51.666;6.634;2023-07-08T10:05:14;8.75;;;5.55;;
12958;SDS011;6544;51.666;6.634;2023-07-08T10:07:46;7.97;;;5.22;;
12958;SDS011;6544;51.666;6.634;2023-07-08T10:10:16;6.55;;;5.10;;
12958;SDS011;6544;51.666;6.634;2023-07-08T10:12:47;9.00;;;5.38;;
12958;SDS011;6544;51.666;6.634;2023-07-08T10:15:22;7.57;;;5.50;;
12958;SDS011;6544;51.666;6.634;2023-07-08T10:17:52;10.23;;;5.65;;
12958;SDS011;6544;51.666;6.634;2023-07-08T10:20:20;9.45;;;5.70;;
12958;SDS011;6544;51.666;6.634;2023-07-08T10:22:54;9.55;;;5.50;;
12958;SDS011;6544;51.666;6.634;2023-07-08T10:25:41;15.00;;;6.72;;
12958;SDS011;6544;51.666;6.634;2023-07-08T10:28:19;10.48;;;6.20;;
12958;SDS011;6544;51.666;6.634;2023-07-08T10:31:01;10.77;;;6.22;;
12958;SDS011;6544;51.666;6.634;2023-07-08T10:33:44;11.80;;;6.00;;
12958;SDS011;6544;51.666;6.634;2023-07-08T10:36:30;8.63;;;5.40;;
12958;SDS011;6544;51.666;6.634;2023-07-08T10:39:19;8.65;;;4.97;;
12958;SDS011;6544;51.666;6.634;2023-07-08T10:42:04;8.85;;;5.30;;
12958;SDS011;6544;51.666;6.634;2023-07-08T10:44:39;8.45;;;4.53;;
12958;SDS011;6544;51.666;6.634;2023-07-08T10:47:15;8.50;;;5.60;;
12958;SDS011;6544;51.666;6.634;2023-07-08T10:50:04;6.20;;;4.90;;
12958;SDS011;6544;51.666;6.634;2023-07-08T10:52:46;6.82;;;5.25;;
12958;SDS011;6544;51.666;6.634;2023-07-08T10:55:26;8.00;;;4.53;;
12958;SDS011;6544;51.666;6.634;2023-07-08T10:58:05;7.65;;;4.63;;
12958;SDS011;6544;51.666;6.634;2023-07-08T11:00:51;8.48;;;5.05;;
12958;SDS011;6544;51.666;6.634;2023-07-08T11:03:35;6.70;;;5.13;;
12958;SDS011;6544;51.666;6.634;2023-07-08T11:06:19;8.68;;;5.05;;
12958;SDS011;6544;51.666;6.634;2023-07-08T11:08:51;7.85;;;4.88;;
12958;SDS011;6544;51.666;6.634;2023-07-08T11:11:26;6.43;;;4.80;;
12958;SDS011;6544;51.666;6.634;2023-07-08T11:14:06;8.45;;;4.97;;
12958;SDS011;6544;51.666;6.634;2023-07-08T11:16:40;7.50;;;4.85;;
12958;SDS011;6544;51.666;6.634;2023-07-08T11:19:13;9.20;;;4.60;;
12958;SDS011;6544;51.666;6.634;2023-07-08T11:21:46;6.43;;;4.55;;
12958;SDS011;6544;51.666;6.634;2023-07-08T11:24:17;9.45;;;4.70;;
12958;SDS011;6544;51.666;6.634;2023-07-08T11:26:52;6.63;;;4.70;;
12958;SDS011;6544;51.666;6.634;2023-07-08T11:29:22;8.35;;;5.15;;
12958;SDS011;6544;51.666;6.634;2023-07-08T11:31:56;7.60;;;4.85;;
12958;SDS011;6544;51.666;6.634;2023-07-08T11:34:23;5.43;;;4.13;;
12958;SDS011;6544;51.666;6.634;2023-07-08T11:36:53;6.20;;;4.10;;
12958;SDS011;6544;51.666;6.634;2023-07-08T11:39:31;7.03;;;4.40;;
12958;SDS011;6544;51.666;6.634;2023-07-08T11:42:04;5.47;;;3.95;;
12958;SDS011;6544;51.666;6.634;2023-07-08T11:44:47;6.05;;;3.75;;
12958;SDS011;6544;51.666;6.634;2023-07-08T11:47:18;5.43;;;3.90;;
12958;SDS011;6544;51.666;6.634;2023-07-08T11:49:52;5.75;;;4.30;;
12958;SDS011;6544;51.666;6.634;2023-07-08T11:52:20;8.02;;;4.18;;
12958;SDS011;6544;51.666;6.634;2023-07-08T11:54:55;5.85;;;4.43;;
12958;SDS011;6544;51.666;6.634;2023-07-08T11:57:27;5.93;;;3.83;;
12958;SDS011;6544;51.666;6.634;2023-07-08T12:00:06;7.32;;;4.25;;
12958;SDS011;6544;51.666;6.634;2023-07-08T12:05:44;7.57;;;4.50;;
12958;SDS011;6544;51.666;6.634;2023-07-08T12:08:11;6.18;;;4.30;;
12958;SDS011;6544;51.666;6.634;2023-07-08T12:10:40;6.28;;;4.18;;
12958;SDS011;6544;51.666;6.634;2023-07-08T12:13:14;5.60;;;4.15;;
12958;SDS011;6544;51.666;6.634;2023-07-08T12:15:43;10.38;;;4.70;;
12958;SDS011;6544;51.666;6.634;2023-07-08T12:18:12;8.75;;;4.47;;
12958;SDS011;6544;51.666;6.634;2023-07-08T12:20:43;5.57;;;4.25;;
12958;SDS011;6544;51.666;6.634;2023-07-08T12:23:13;9.95;;;4.32;;
12958;SDS011;6544;51.666;6.634;2023-07-08T12:25:42;10.10;;;4.85;;
12958;SDS011;6544;51.666;6.634;2023-07-08T12:28:09;5.68;;;4.10;;
12958;SDS011;6544;51.666;6.634;2023-07-08T12:30:39;7.97;;;3.90;;
12958;SDS011;6544;51.666;6.634;2023-07-08T12:33:09;6.85;;;4.20;;
12958;SDS011;6544;51.666;6.634;2023-07-08T12:35:38;5.80;;;3.97;;
12958;SDS011;6544;51.666;6.634;2023-07-08T12:38:10;7.15;;;4.05;;
12958;SDS011;6544;51.666;6.634;2023-07-08T12:40:44;8.50;;;4.25;;
12958;SDS011;6544;51.666;6.634;2023-07-08T12:43:11;8.07;;;4.60;;
12958;SDS011;6544;51.666;6.634;2023-07-08T12:45:40;7.63;;;4.45;;
12958;SDS011;6544;51.666;6.634;2023-07-08T12:48:08;6.03;;;4.18;;
12958;SDS011;6544;51.666;6.634;2023-07-08T12:50:35;8.55;;;4.05;;
12958;SDS011;6544;51.666;6.634;2023-07-08T12:53:03;5.53;;;3.90;;
12958;SDS011;6544;51.666;6.634;2023-07-08T12:55:35;7.00;;;4.10;;
12958;SDS011;6544;51.666;6.634;2023-07-08T12:58:03;8.15;;;4.13;;
12958;SDS011;6544;51.666;6.634;2023-07-08T13:00:32;7.60;;;3.83;;
12958;SDS011;6544;51.666;6.634;2023-07-08T13:03:07;9.18;;;3.97;;
12958;SDS011;6544;51.666;6.634;2023-07-08T13:05:38;10.73;;;4.53;;
12958;SDS011;6544;51.666;6.634;2023-07-08T13:08:07;6.90;;;4.30;;
12958;SDS011;6544;51.666;6.634;2023-07-08T13:10:37;7.65;;;4.25;;
12958;SDS011;6544;51.666;6.634;2023-07-08T13:13:04;7.50;;;4.50;;
12958;SDS011;6544;51.666;6.634;2023-07-08T13:15:34;7.07;;;4.20;;
12958;SDS011;6544;51.666;6.634;2023-07-08T13:18:07;4.93;;;3.90;;
12958;SDS011;6544;51.666;6.634;2023-07-08T13:20:42;6.40;;;4.10;;
12958;SDS011;6544;51.666;6.634;2023-07-08T13:23:10;6.38;;;3.85;;
12958;SDS011;6544;51.666;6.634;2023-07-08T13:25:38;6.10;;;4.30;;
12958;SDS011;6544;51.666;6.634;2023-07-08T13:28:14;8.23;;;4.30;;
12958;SDS011;6544;51.666;6.634;2023-07-08T13:30:49;6.22;;;4.10;;
12958;SDS011;6544;51.666;6.634;2023-07-08T13:33:19;11.38;;;4.40;;
12958;SDS011;6544;51.666;6.634;2023-07-08T13:35:47;6.30;;;3.97;;
12958;SDS011;6544;51.666;6.634;2023-07-08T13:38:15;8.68;;;4.43;;
12958;SDS011;6544;51.666;6.634;2023-07-08T13:40:44;5.07;;;3.97;;
12958;SDS011;6544;51.666;6.634;2023-07-08T13:43:13;5.63;;;4.30;;
12958;SDS011;6544;51.666;6.634;2023-07-08T13:45:43;6.07;;;4.47;;
12958;SDS011;6544;51.666;6.634;2023-07-08T13:48:14;10.95;;;4.72;;
12958;SDS011;6544;51.666;6.634;2023-07-08T13:50:50;6.50;;;4.50;;
12958;SDS011;6544;51.666;6.634;2023-07-08T13:53:22;6.00;;;4.20;;
12958;SDS011;6544;51.666;6.634;2023-07-08T13:55:58;6.07;;;4.18;;
12958;SDS011;6544;51.666;6.634;2023-07-08T13:58:27;8.85;;;4.20;;
12958;SDS011;6544;51.666;6.634;2023-07-08T14:00:55;8.27;;;4.50;;
12958;SDS011;6544;51.666;6.634;2023-07-08T14:03:24;10.10;;;5.20;;
12958;SDS011;6544;51.666;6.634;2023-07-08T14:05:51;9.65;;;8.35;;
12958;SDS011;6544;51.666;6.634;2023-07-08T14:08:18;8.75;;;6.60;;
12958;SDS011;6544;51.666;6.634;2023-07-08T14:10:47;13.75;;;5.10;;
12958;SDS011;6544;51.666;6.634;2023-07-08T14:13:14;10.38;;;6.55;;
12958;SDS011;6544;51.666;6.634;2023-07-08T14:15:42;9.18;;;7.78;;
12958;SDS011;6544;51.666;6.634;2023-07-08T14:18:11;15.30;;;5.63;;
12958;SDS011;6544;51.666;6.634;2023-07-08T14:20:40;6.53;;;4.20;;
12958;SDS011;6544;51.666;6.634;2023-07-08T14:23:08;6.68;;;4.53;;
12958;SDS011;6544;51.666;6.634;2023-07-08T14:25:38;8.20;;;4.35;;
12958;SDS011;6544;51.666;6.634;2023-07-08T14:28:05;7.45;;;4.38;;
12958;SDS011;6544;51.666;6.634;2023-07-08T14:30:32;7.82;;;4.28;;
12958;SDS011;6544;51.666;6.634;2023-07-08T14:33:00;7.13;;;4.15;;
12958;SDS011;6544;51.666;6.634;2023-07-08T14:35:28;6.00;;;4.25;;
12958;SDS011;6544;51.666;6.634;2023-07-08T14:37:57;7.40;;;4.20;;
12958;SDS011;6544;51.666;6.634;2023-07-08T14:40:25;7.32;;;4.10;;
12958;SDS011;6544;51.666;6.634;2023-07-08T14:42:55;9.05;;;4.20;;
12958;SDS011;6544;51.666;6.634;2023-07-08T14:45:25;8.93;;;4.15;;
12958;SDS011;6544;51.666;6.634;2023-07-08T14:47:53;6.75;;;3.72;;
12958;SDS011;6544;51.666;6.634;2023-07-08T14:50:21;6.13;;;3.92;;
12958;SDS011;6544;51.666;6.634;2023-07-08T14:52:50;5.88;;;3.88;;
12958;SDS011;6544;51.666;6.634;2023-07-08T14:55:18;7.47;;;4.13;;
12958;SDS011;6544;51.666;6.634;2023-07-08T14:57:46;8.98;;;4.15;;
12958;SDS011;6544;51.666;6.634;2023-07-08T15:00:15;6.13;;;4.28;;
12958;SDS011;6544;51.666;6.634;2023-07-08T15:02:44;6.50;;;3.92;;
12958;SDS011;6544;51.666;6.634;2023-07-08T15:05:15;7.10;;;4.38;;
12958;SDS011;6544;51.666;6.634;2023-07-08T15:07:48;9.15;;;4.05;;
12958;SDS011;6544;51.666;6.634;2023-07-08T15:10:15;6.93;;;4.00;;
12958;SDS011;6544;51.666;6.634;2023-07-08T15:12:44;6.30;;;3.90;;
12958;SDS011;6544;51.666;6.634;2023-07-08T15:15:16;6.88;;;3.50;;
12958;SDS011;6544;51.666;6.634;2023-07-08T15:17:48;8.00;;;4.03;;
12958;SDS011;6544;51.666;6.634;2023-07-08T15:20:15;7.32;;;4.55;;